sensor_id;sensor_type;location;lat;lon;timestamp;P1;durP1;ratioP1;P2;durP2;ratioP2
59099;SDS011;44884;52.730;6.964;2024-02-14T00:00:02;5.15;;;3.83;;
59099;SDS011;44884;52.730;6.964;2024-02-14T00:02:28;5.57;;;4.25;;
59099;SDS011;44884;52.730;6.964;2024-02-14T00:04:55;4.55;;;4.07;;
59099;SDS011;44884;52.730;6.964;2024-02-14T00:07:21;8.98;;;4.55;;
59099;SDS011;44884;52.730;6.964;2024-02-14T00:09:47;5.68;;;4.80;;
59099;SDS011;44884;52.730;6.964;2024-02-14T00:12:13;6.57;;;3.75;;
59099;SDS011;44884;52.730;6.964;2024-02-14T00:14:39;7.68;;;4.30;;
59099;SDS011;44884;52.730;6.964;2024-02-14T00:17:05;5.03;;;3.70;;
59099;SDS011;44884;52.730;6.964;2024-02-14T00:19:32;6.45;;;4.97;;
59099;SDS011;44884;52.730;6.964;2024-02-14T00:21:58;5.45;;;4.10;;
59099;SDS011;44884;52.730;6.964;2024-02-14T00:24:25;4.53;;;3.88;;
59099;SDS011;44884;52.730;6.964;2024-02-14T00:26:53;3.95;;;3.22;;
59099;SDS011;44884;52.730;6.964;2024-02-14T00:29:19;5.50;;;4.30;;
59099;SDS011;44884;52.730;6.964;2024-02-14T00:31:46;4.18;;;3.67;;
59099;SDS011;44884;52.730;6.964;2024-02-14T00:34:12;5.15;;;4.03;;
59099;SDS011;44884;52.730;6.964;2024-02-14T00:36:38;6.78;;;4.82;;
59099;SDS011;44884;52.730;6.964;2024-02-14T00:39:04;5.13;;;4.30;;
59099;SDS011;44884;52.730;6.964;2024-02-14T00:41:30;6.45;;;5.22;;
59099;SDS011;44884;52.730;6.964;2024-02-14T00:43:56;4.80;;;4.28;;
59099;SDS011;44884;52.730;6.964;2024-02-14T00:46:22;4.97;;;3.85;;
59099;SDS011;44884;52.730;6.964;2024-02-14T00:48:48;7.05;;;5.30;;
59099;SDS011;44884;52.730;6.964;2024-02-14T00:51:14;5.65;;;4.30;;
59099;SDS011;44884;52.730;6.964;2024-02-14T00:53:40;6.00;;;4.35;;
59099;SDS011;44884;52.730;6.964;2024-02-14T00:56:06;5.43;;;4.60;;
59099;SDS011;44884;52.730;6.964;2024-02-14T00:58:33;6.53;;;5.57;;
59099;SDS011;44884;52.730;6.964;2024-02-14T01:00:59;4.75;;;4.30;;
59099;SDS011;44884;52.730;6.964;2024-02-14T01:03:25;5.50;;;4.45;;
59099;SDS011;44884;52.730;6.964;2024-02-14T01:05:51;6.43;;;4.70;;
59099;SDS011;44884;52.730;6.964;2024-02-14T01:08:17;5.30;;;4.60;;
59099;SDS011;44884;52.730;6.964;2024-02-14T01:10:43;4.35;;;3.95;;
59099;SDS011;44884;52.730;6.964;2024-02-14T01:13:11;5.50;;;5.00;;
59099;SDS011;44884;52.730;6.964;2024-02-14T01:15:37;7.22;;;5.85;;
59099;SDS011;44884;52.730;6.964;2024-02-14T01:18:04;5.35;;;4.70;;
59099;SDS011;44884;52.730;6.964;2024-02-14T01:20:30;7.32;;;4.80;;
59099;SDS011;44884;52.730;6.964;2024-02-14T01:22:57;6.20;;;4.80;;
59099;SDS011;44884;52.730;6.964;2024-02-14T01:25:23;6.63;;;5.35;;
59099;SDS011;44884;52.730;6.964;2024-02-14T01:27:49;7.22;;;5.20;;
59099;SDS011;44884;52.730;6.964;2024-02-14T01:30:17;5.60;;;4.70;;
59099;SDS011;44884;52.730;6.964;2024-02-14T01:32:44;5.38;;;4.78;;
59099;SDS011;44884;52.730;6.964;2024-02-14T01:35:10;6.78;;;4.70;;
59099;SDS011;44884;52.730;6.964;2024-02-14T01:37:36;6.50;;;4.90;;
59099;SDS011;44884;52.730;6.964;2024-02-14T01:40:02;6.10;;;5.00;;
59099;SDS011;44884;52.730;6.964;2024-02-14T01:42:28;5.88;;;5.20;;
59099;SDS011;44884;52.730;6.964;2024-02-14T01:44:54;5.60;;;5.05;;
59099;SDS011;44884;52.730;6.964;2024-02-14T01:47:20;6.35;;;4.47;;
59099;SDS011;44884;52.730;6.964;2024-02-14T01:49:47;5.78;;;5.00;;
59099;SDS011;44884;52.730;6.964;2024-02-14T01:52:13;6.10;;;5.40;;
59099;SDS011;44884;52.730;6.964;2024-02-14T01:54:39;6.10;;;5.15;;
59099;SDS011;44884;52.730;6.964;2024-02-14T01:57:05;9.05;;;4.93;;
59099;SDS011;44884;52.730;6.964;2024-02-14T01:59:33;5.05;;;4.65;;
59099;SDS011;44884;52.730;6.964;2024-02-14T02:02:02;6.13;;;4.43;;
59099;SDS011;44884;52.730;6.964;2024-02-14T02:04:28;4.75;;;4.13;;
59099;SDS011;44884;52.730;6.964;2024-02-14T02:06:55;5.78;;;4.93;;
59099;SDS011;44884;52.730;6.964;2024-02-14T02:09:22;5.90;;;5.10;;
59099;SDS011;44884;52.730;6.964;2024-02-14T02:11:48;5.35;;;4.85;;
59099;SDS011;44884;52.730;6.964;2024-02-14T02:14:15;5.10;;;4.60;;
59099;SDS011;44884;52.730;6.964;2024-02-14T02:16:44;5.30;;;4.78;;
59099;SDS011;44884;52.730;6.964;2024-02-14T02:19:11;6.50;;;4.20;;
59099;SDS011;44884;52.730;6.964;2024-02-14T02:21:37;5.60;;;4.85;;
59099;SDS011;44884;52.730;6.964;2024-02-14T02:24:03;5.82;;;4.50;;
59099;SDS011;44884;52.730;6.964;2024-02-14T02:26:30;5.32;;;4.82;;
59099;SDS011;44884;52.730;6.964;2024-02-14T02:28:56;5.88;;;4.78;;
59099;SDS011;44884;52.730;6.964;2024-02-14T02:31:22;5.03;;;4.25;;
59099;SDS011;44884;52.730;6.964;2024-02-14T02:33:48;5.43;;;4.65;;
59099;SDS011;44884;52.730;6.964;2024-02-14T02:36:17;4.45;;;4.05;;
59099;SDS011;44884;52.730;6.964;2024-02-14T02:38:43;5.43;;;4.63;;
59099;SDS011;44884;52.730;6.964;2024-02-14T02:41:09;4.93;;;4.40;;
59099;SDS011;44884;52.730;6.964;2024-02-14T02:43:35;5.30;;;4.07;;
59099;SDS011;44884;52.730;6.964;2024-02-14T02:46:01;5.25;;;4.72;;
59099;SDS011;44884;52.730;6.964;2024-02-14T02:48:27;5.20;;;4.47;;
59099;SDS011;44884;52.730;6.964;2024-02-14T02:50:53;4.30;;;3.90;;
59099;SDS011;44884;52.730;6.964;2024-02-14T02:53:19;5.68;;;4.75;;
59099;SDS011;44884;52.730;6.964;2024-02-14T02:55:46;4.80;;;4.22;;
59099;SDS011;44884;52.730;6.964;2024-02-14T02:58:12;4.50;;;4.10;;
59099;SDS011;44884;52.730;6.964;2024-02-14T03:00:38;6.03;;;4.28;;
59099;SDS011;44884;52.730;6.964;2024-02-14T03:03:07;5.05;;;4.50;;
59099;SDS011;44884;52.730;6.964;2024-02-14T03:05:33;5.22;;;4.72;;
59099;SDS011;44884;52.730;6.964;2024-02-14T03:07:59;4.97;;;4.28;;
59099;SDS011;44884;52.730;6.964;2024-02-14T03:10:26;4.93;;;4.43;;
59099;SDS011;44884;52.730;6.964;2024-02-14T03:12:52;4.18;;;3.78;;
59099;SDS011;44884;52.730;6.964;2024-02-14T03:15:18;4.32;;;4.03;;
59099;SDS011;44884;52.730;6.964;2024-02-14T03:17:45;4.35;;;3.95;;
59099;SDS011;44884;52.730;6.964;2024-02-14T03:20:11;4.43;;;4.03;;
59099;SDS011;44884;52.730;6.964;2024-02-14T03:22:38;4.40;;;4.00;;
59099;SDS011;44884;52.730;6.964;2024-02-14T03:25:09;5.35;;;4.15;;
59099;SDS011;44884;52.730;6.964;2024-02-14T03:27:36;4.63;;;4.22;;
59099;SDS011;44884;52.730;6.964;2024-02-14T03:30:02;4.00;;;3.60;;
59099;SDS011;44884;52.730;6.964;2024-02-14T03:32:29;4.93;;;4.35;;
59099;SDS011;44884;52.730;6.964;2024-02-14T03:34:55;4.80;;;4.32;;
59099;SDS011;44884;52.730;6.964;2024-02-14T03:37:21;3.83;;;3.53;;
59099;SDS011;44884;52.730;6.964;2024-02-14T03:39:47;5.03;;;4.53;;
59099;SDS011;44884;52.730;6.964;2024-02-14T03:42:13;4.57;;;3.85;;
59099;SDS011;44884;52.730;6.964;2024-02-14T03:44:40;5.13;;;4.45;;
59099;SDS011;44884;52.730;6.964;2024-02-14T03:47:06;4.80;;;4.30;;
59099;SDS011;44884;52.730;6.964;2024-02-14T03:49:32;4.68;;;4.28;;
59099;SDS011;44884;52.730;6.964;2024-02-14T03:51:59;4.22;;;3.90;;
59099;SDS011;44884;52.730;6.964;2024-02-14T03:54:26;4.97;;;4.47;;
59099;SDS011;44884;52.730;6.964;2024-02-14T03:56:53;4.22;;;3.80;;
59099;SDS011;44884;52.730;6.964;2024-02-14T03:59:20;4.53;;;4.13;;
59099;SDS011;44884;52.730;6.964;2024-02-14T04:01:49;4.35;;;3.95;;
59099;SDS011;44884;52.730;6.964;2024-02-14T04:04:18;4.53;;;3.95;;
59099;SDS011;44884;52.730;6.964;2024-02-14T04:06:44;5.07;;;4.30;;
59099;SDS011;44884;52.730;6.964;2024-02-14T04:09:11;5.22;;;4.13;;
59099;SDS011;44884;52.730;6.964;2024-02-14T04:11:37;4.22;;;3.83;;
59099;SDS011;44884;52.730;6.964;2024-02-14T04:14:03;5.28;;;3.85;;
59099;SDS011;44884;52.730;6.964;2024-02-14T04:16:29;5.43;;;4.93;;
59099;SDS011;44884;52.730;6.964;2024-02-14T04:18:55;4.60;;;4.18;;
59099;SDS011;44884;52.730;6.964;2024-02-14T04:21:21;4.38;;;3.95;;
59099;SDS011;44884;52.730;6.964;2024-02-14T04:23:47;4.10;;;3.63;;
59099;SDS011;44884;52.730;6.964;2024-02-14T04:26:20;4.18;;;3.58;;
59099;SDS011;44884;52.730;6.964;2024-02-14T04:28:46;4.53;;;4.13;;
59099;SDS011;44884;52.730;6.964;2024-02-14T04:31:12;4.43;;;4.03;;
59099;SDS011;44884;52.730;6.964;2024-02-14T04:33:38;4.95;;;3.90;;
59099;SDS011;44884;52.730;6.964;2024-02-14T04:36:04;4.35;;;3.90;;
59099;SDS011;44884;52.730;6.964;2024-02-14T04:38:31;4.43;;;4.03;;
59099;SDS011;44884;52.730;6.964;2024-02-14T04:40:57;5.20;;;4.70;;
59099;SDS011;44884;52.730;6.964;2024-02-14T04:43:24;5.53;;;3.85;;
59099;SDS011;44884;52.730;6.964;2024-02-14T04:45:50;4.13;;;3.80;;
59099;SDS011;44884;52.730;6.964;2024-02-14T04:48:16;4.65;;;4.25;;
59099;SDS011;44884;52.730;6.964;2024-02-14T04:50:42;5.65;;;3.88;;
59099;SDS011;44884;52.730;6.964;2024-02-14T04:53:08;4.00;;;3.63;;
59099;SDS011;44884;52.730;6.964;2024-02-14T04:55:34;5.43;;;3.65;;
59099;SDS011;44884;52.730;6.964;2024-02-14T04:58:01;4.72;;;4.25;;
59099;SDS011;44884;52.730;6.964;2024-02-14T05:00:27;4.40;;;3.97;;
59099;SDS011;44884;52.730;6.964;2024-02-14T05:02:53;3.65;;;3.35;;
59099;SDS011;44884;52.730;6.964;2024-02-14T05:05:19;4.40;;;4.00;;
59099;SDS011;44884;52.730;6.964;2024-02-14T05:07:45;4.93;;;4.22;;
59099;SDS011;44884;52.730;6.964;2024-02-14T05:10:12;4.55;;;4.15;;
59099;SDS011;44884;52.730;6.964;2024-02-14T05:12:39;4.80;;;3.97;;
59099;SDS011;44884;52.730;6.964;2024-02-14T05:15:05;4.38;;;3.58;;
59099;SDS011;44884;52.730;6.964;2024-02-14T05:17:31;6.22;;;4.00;;
59099;SDS011;44884;52.730;6.964;2024-02-14T05:19:57;5.65;;;3.95;;
59099;SDS011;44884;52.730;6.964;2024-02-14T05:22:23;3.63;;;3.33;;
59099;SDS011;44884;52.730;6.964;2024-02-14T05:24:50;3.58;;;3.25;;
59099;SDS011;44884;52.730;6.964;2024-02-14T05:27:16;4.13;;;3.72;;
59099;SDS011;44884;52.730;6.964;2024-02-14T05:29:42;4.15;;;3.78;;
59099;SDS011;44884;52.730;6.964;2024-02-14T05:32:08;4.72;;;4.15;;
59099;SDS011;44884;52.730;6.964;2024-02-14T05:34:37;4.05;;;3.65;;
59099;SDS011;44884;52.730;6.964;2024-02-14T05:37:03;3.65;;;3.35;;
59099;SDS011;44884;52.730;6.964;2024-02-14T05:39:30;4.13;;;3.72;;
59099;SDS011;44884;52.730;6.964;2024-02-14T05:41:56;4.45;;;3.40;;
59099;SDS011;44884;52.730;6.964;2024-02-14T05:44:22;4.10;;;3.70;;
59099;SDS011;44884;52.730;6.964;2024-02-14T05:46:48;4.03;;;3.58;;
59099;SDS011;44884;52.730;6.964;2024-02-14T05:49:14;3.90;;;3.50;;
59099;SDS011;44884;52.730;6.964;2024-02-14T05:51:40;4.20;;;3.78;;
59099;SDS011;44884;52.730;6.964;2024-02-14T05:54:06;3.83;;;3.50;;
59099;SDS011;44884;52.730;6.964;2024-02-14T05:56:32;4.05;;;3.65;;
59099;SDS011;44884;52.730;6.964;2024-02-14T05:58:58;4.57;;;3.50;;
59099;SDS011;44884;52.730;6.964;2024-02-14T06:01:24;4.05;;;3.67;;
59099;SDS011;44884;52.730;6.964;2024-02-14T06:03:50;3.92;;;3.53;;
59099;SDS011;44884;52.730;6.964;2024-02-14T06:06:17;3.42;;;3.13;;
59099;SDS011;44884;52.730;6.964;2024-02-14T06:08:43;4.25;;;3.30;;
59099;SDS011;44884;52.730;6.964;2024-02-14T06:11:09;3.95;;;3.65;;
59099;SDS011;44884;52.730;6.964;2024-02-14T06:13:37;4.10;;;3.67;;
59099;SDS011;44884;52.730;6.964;2024-02-14T06:16:03;3.88;;;3.58;;
59099;SDS011;44884;52.730;6.964;2024-02-14T06:18:30;3.88;;;3.58;;
59099;SDS011;44884;52.730;6.964;2024-02-14T06:20:56;3.30;;;3.00;;
59099;SDS011;44884;52.730;6.964;2024-02-14T06:23:22;3.90;;;3.50;;
59099;SDS011;44884;52.730;6.964;2024-02-14T06:25:48;3.78;;;3.15;;
59099;SDS011;44884;52.730;6.964;2024-02-14T06:28:14;3.47;;;3.17;;
59099;SDS011;44884;52.730;6.964;2024-02-14T06:30:40;4.28;;;3.42;;
59099;SDS011;44884;52.730;6.964;2024-02-14T06:33:06;4.50;;;3.53;;
59099;SDS011;44884;52.730;6.964;2024-02-14T06:35:32;4.30;;;3.90;;
59099;SDS011;44884;52.730;6.964;2024-02-14T06:37:58;3.67;;;3.38;;
59099;SDS011;44884;52.730;6.964;2024-02-14T06:40:25;4.35;;;3.63;;
59099;SDS011;44884;52.730;6.964;2024-02-14T06:42:52;4.93;;;4.32;;
59099;SDS011;44884;52.730;6.964;2024-02-14T06:45:19;3.80;;;3.50;;
59099;SDS011;44884;52.730;6.964;2024-02-14T06:47:45;4.00;;;3.60;;
59099;SDS011;44884;52.730;6.964;2024-02-14T06:50:11;3.75;;;3.35;;
59099;SDS011;44884;52.730;6.964;2024-02-14T06:52:37;4.43;;;3.95;;
59099;SDS011;44884;52.730;6.964;2024-02-14T06:55:03;4.15;;;3.40;;
59099;SDS011;44884;52.730;6.964;2024-02-14T06:57:29;4.63;;;3.63;;
59099;SDS011;44884;52.730;6.964;2024-02-14T06:59:55;4.60;;;4.18;;
59099;SDS011;44884;52.730;6.964;2024-02-14T07:02:21;4.43;;;3.58;;
59099;SDS011;44884;52.730;6.964;2024-02-14T07:04:48;4.00;;;3.60;;
59099;SDS011;44884;52.730;6.964;2024-02-14T07:07:14;5.38;;;3.80;;
59099;SDS011;44884;52.730;6.964;2024-02-14T07:09:40;4.00;;;3.60;;
59099;SDS011;44884;52.730;6.964;2024-02-14T07:12:06;4.90;;;3.60;;
59099;SDS011;44884;52.730;6.964;2024-02-14T07:14:32;4.13;;;3.72;;
59099;SDS011;44884;52.730;6.964;2024-02-14T07:16:58;4.10;;;3.70;;
59099;SDS011;44884;52.730;6.964;2024-02-14T07:19:24;3.80;;;3.40;;
59099;SDS011;44884;52.730;6.964;2024-02-14T07:21:50;4.35;;;3.92;;
59099;SDS011;44884;52.730;6.964;2024-02-14T07:24:16;4.55;;;4.15;;
59099;SDS011;44884;52.730;6.964;2024-02-14T07:26:43;4.65;;;3.78;;
59099;SDS011;44884;52.730;6.964;2024-02-14T07:29:09;4.90;;;4.40;;
59099;SDS011;44884;52.730;6.964;2024-02-14T07:31:35;4.55;;;4.07;;
59099;SDS011;44884;52.730;6.964;2024-02-14T07:34:01;3.92;;;3.60;;
59099;SDS011;44884;52.730;6.964;2024-02-14T07:36:29;3.45;;;3.15;;
59099;SDS011;44884;52.730;6.964;2024-02-14T07:38:55;4.18;;;3.63;;
59099;SDS011;44884;52.730;6.964;2024-02-14T07:41:21;4.03;;;3.70;;
59099;SDS011;44884;52.730;6.964;2024-02-14T07:43:47;4.30;;;3.67;;
59099;SDS011;44884;52.730;6.964;2024-02-14T07:46:19;3.75;;;3.45;;
59099;SDS011;44884;52.730;6.964;2024-02-14T07:48:47;3.72;;;3.40;;
59099;SDS011;44884;52.730;6.964;2024-02-14T07:51:14;4.63;;;3.97;;
59099;SDS011;44884;52.730;6.964;2024-02-14T07:53:40;4.30;;;3.90;;
59099;SDS011;44884;52.730;6.964;2024-02-14T07:56:06;5.95;;;5.18;;
59099;SDS011;44884;52.730;6.964;2024-02-14T07:58:32;7.47;;;4.40;;
59099;SDS011;44884;52.730;6.964;2024-02-14T08:00:58;5.40;;;4.07;;
59099;SDS011;44884;52.730;6.964;2024-02-14T08:03:24;4.32;;;3.92;;
59099;SDS011;44884;52.730;6.964;2024-02-14T08:05:50;4.05;;;3.65;;
59099;SDS011;44884;52.730;6.964;2024-02-14T08:08:16;5.18;;;4.40;;
59099;SDS011;44884;52.730;6.964;2024-02-14T08:10:42;4.90;;;4.25;;
59099;SDS011;44884;52.730;6.964;2024-02-14T08:13:08;4.85;;;4.35;;
59099;SDS011;44884;52.730;6.964;2024-02-14T08:15:36;5.45;;;4.45;;
59099;SDS011;44884;52.730;6.964;2024-02-14T08:18:02;4.85;;;4.13;;
59099;SDS011;44884;52.730;6.964;2024-02-14T08:20:28;4.72;;;4.30;;
59099;SDS011;44884;52.730;6.964;2024-02-14T08:22:54;5.07;;;3.97;;
59099;SDS011;44884;52.730;6.964;2024-02-14T08:25:20;3.47;;;3.17;;
59099;SDS011;44884;52.730;6.964;2024-02-14T08:27:46;5.72;;;4.63;;
59099;SDS011;44884;52.730;6.964;2024-02-14T08:30:12;4.38;;;3.97;;
59099;SDS011;44884;52.730;6.964;2024-02-14T08:32:38;4.93;;;4.53;;
59099;SDS011;44884;52.730;6.964;2024-02-14T08:35:04;4.70;;;4.20;;
59099;SDS011;44884;52.730;6.964;2024-02-14T08:37:32;4.40;;;3.80;;
59099;SDS011;44884;52.730;6.964;2024-02-14T08:40:01;4.18;;;3.60;;
59099;SDS011;44884;52.730;6.964;2024-02-14T08:42:30;4.78;;;4.25;;
59099;SDS011;44884;52.730;6.964;2024-02-14T08:44:56;5.22;;;4.72;;
59099;SDS011;44884;52.730;6.964;2024-02-14T08:47:22;6.47;;;5.15;;
59099;SDS011;44884;52.730;6.964;2024-02-14T08:49:49;4.72;;;3.67;;
59099;SDS011;44884;52.730;6.964;2024-02-14T08:52:15;4.45;;;4.05;;
59099;SDS011;44884;52.730;6.964;2024-02-14T08:54:41;5.38;;;4.88;;
59099;SDS011;44884;52.730;6.964;2024-02-14T08:57:07;4.82;;;4.20;;
59099;SDS011;44884;52.730;6.964;2024-02-14T08:59:33;6.05;;;4.78;;
59099;SDS011;44884;52.730;6.964;2024-02-14T09:01:59;5.88;;;4.35;;
59099;SDS011;44884;52.730;6.964;2024-02-14T09:04:25;5.22;;;4.35;;
59099;SDS011;44884;52.730;6.964;2024-02-14T09:06:52;5.32;;;4.55;;
59099;SDS011;44884;52.730;6.964;2024-02-14T09:09:18;4.30;;;3.90;;
59099;SDS011;44884;52.730;6.964;2024-02-14T09:11:44;5.20;;;4.22;;
59099;SDS011;44884;52.730;6.964;2024-02-14T09:14:13;4.78;;;4.28;;
59099;SDS011;44884;52.730;6.964;2024-02-14T09:16:39;7.07;;;4.55;;
59099;SDS011;44884;52.730;6.964;2024-02-14T09:19:05;4.97;;;4.47;;
59099;SDS011;44884;52.730;6.964;2024-02-14T09:21:35;6.43;;;4.90;;
59099;SDS011;44884;52.730;6.964;2024-02-14T09:24:01;5.28;;;4.78;;
59099;SDS011;44884;52.730;6.964;2024-02-14T09:26:28;5.88;;;4.55;;
59099;SDS011;44884;52.730;6.964;2024-02-14T09:28:54;5.03;;;4.50;;
59099;SDS011;44884;52.730;6.964;2024-02-14T09:31:21;5.07;;;4.40;;
59099;SDS011;44884;52.730;6.964;2024-02-14T09:33:47;5.35;;;4.60;;
59099;SDS011;44884;52.730;6.964;2024-02-14T09:36:14;5.78;;;5.18;;
59099;SDS011;44884;52.730;6.964;2024-02-14T09:38:40;5.18;;;4.35;;
59099;SDS011;44884;52.730;6.964;2024-02-14T09:41:22;6.47;;;5.25;;
59099;SDS011;44884;52.730;6.964;2024-02-14T09:43:51;5.22;;;4.72;;
59099;SDS011;44884;52.730;6.964;2024-02-14T09:46:17;6.07;;;5.05;;
59099;SDS011;44884;52.730;6.964;2024-02-14T09:48:44;5.65;;;4.70;;
59099;SDS011;44884;52.730;6.964;2024-02-14T09:51:11;6.10;;;4.57;;
59099;SDS011;44884;52.730;6.964;2024-02-14T09:53:38;6.03;;;5.45;;
59099;SDS011;44884;52.730;6.964;2024-02-14T09:56:04;5.60;;;4.90;;
59099;SDS011;44884;52.730;6.964;2024-02-14T09:58:30;5.55;;;4.85;;
59099;SDS011;44884;52.730;6.964;2024-02-14T10:01:00;6.57;;;5.07;;
59099;SDS011;44884;52.730;6.964;2024-02-14T10:03:26;7.15;;;5.35;;
59099;SDS011;44884;52.730;6.964;2024-02-14T10:05:52;6.55;;;5.25;;
59099;SDS011;44884;52.730;6.964;2024-02-14T10:08:18;5.03;;;3.97;;
59099;SDS011;44884;52.730;6.964;2024-02-14T10:10:46;5.88;;;4.55;;
59099;SDS011;44884;52.730;6.964;2024-02-14T10:13:12;9.75;;;4.70;;
59099;SDS011;44884;52.730;6.964;2024-02-14T10:15:38;7.97;;;5.80;;
59099;SDS011;44884;52.730;6.964;2024-02-14T10:18:04;6.85;;;5.03;;
59099;SDS011;44884;52.730;6.964;2024-02-14T10:20:30;5.90;;;4.75;;
59099;SDS011;44884;52.730;6.964;2024-02-14T10:23:02;6.65;;;4.97;;
59099;SDS011;44884;52.730;6.964;2024-02-14T10:25:29;6.95;;;5.47;;
59099;SDS011;44884;52.730;6.964;2024-02-14T10:27:56;6.93;;;5.28;;
59099;SDS011;44884;52.730;6.964;2024-02-14T10:30:22;6.40;;;5.57;;
59099;SDS011;44884;52.730;6.964;2024-02-14T10:32:48;5.43;;;4.65;;
59099;SDS011;44884;52.730;6.964;2024-02-14T10:35:14;6.32;;;5.47;;
59099;SDS011;44884;52.730;6.964;2024-02-14T10:37:41;5.75;;;5.03;;
59099;SDS011;44884;52.730;6.964;2024-02-14T10:40:07;5.95;;;4.97;;
59099;SDS011;44884;52.730;6.964;2024-02-14T10:42:34;5.63;;;5.07;;
59099;SDS011;44884;52.730;6.964;2024-02-14T10:45:01;6.82;;;5.10;;
59099;SDS011;44884;52.730;6.964;2024-02-14T10:47:30;7.45;;;5.35;;
59099;SDS011;44884;52.730;6.964;2024-02-14T10:50:00;6.00;;;4.85;;
59099;SDS011;44884;52.730;6.964;2024-02-14T10:52:30;6.55;;;5.82;;
59099;SDS011;44884;52.730;6.964;2024-02-14T10:54:58;5.53;;;4.75;;
59099;SDS011;44884;52.730;6.964;2024-02-14T10:57:25;7.68;;;5.35;;
59099;SDS011;44884;52.730;6.964;2024-02-14T10:59:52;6.13;;;4.97;;
59099;SDS011;44884;52.730;6.964;2024-02-14T11:02:19;8.23;;;5.97;;
59099;SDS011;44884;52.730;6.964;2024-02-14T11:04:45;7.20;;;5.40;;
59099;SDS011;44884;52.730;6.964;2024-02-14T11:07:12;6.30;;;5.55;;
59099;SDS011;44884;52.730;6.964;2024-02-14T11:09:40;6.50;;;5.50;;
59099;SDS011;44884;52.730;6.964;2024-02-14T11:12:07;7.22;;;5.63;;
59099;SDS011;44884;52.730;6.964;2024-02-14T11:14:36;7.82;;;5.60;;
59099;SDS011;44884;52.730;6.964;2024-02-14T11:17:03;6.18;;;4.78;;
59099;SDS011;44884;52.730;6.964;2024-02-14T11:19:34;6.53;;;5.00;;
59099;SDS011;44884;52.730;6.964;2024-02-14T11:22:13;6.38;;;5.68;;
59099;SDS011;44884;52.730;6.964;2024-02-14T11:24:39;7.18;;;4.95;;
59099;SDS011;44884;52.730;6.964;2024-02-14T11:27:09;6.43;;;5.47;;
59099;SDS011;44884;52.730;6.964;2024-02-14T11:29:38;5.13;;;4.63;;
59099;SDS011;44884;52.730;6.964;2024-02-14T11:32:05;6.10;;;4.93;;
59099;SDS011;44884;52.730;6.964;2024-02-14T11:34:34;6.25;;;4.72;;
59099;SDS011;44884;52.730;6.964;2024-02-14T11:37:01;6.43;;;5.32;;
59099;SDS011;44884;52.730;6.964;2024-02-14T11:39:27;7.55;;;5.07;;
59099;SDS011;44884;52.730;6.964;2024-02-14T11:41:53;8.60;;;6.75;;
59099;SDS011;44884;52.730;6.964;2024-02-14T11:44:19;6.97;;;5.45;;
59099;SDS011;44884;52.730;6.964;2024-02-14T11:46:47;7.03;;;4.60;;
59099;SDS011;44884;52.730;6.964;2024-02-14T11:49:13;5.88;;;5.07;;
59099;SDS011;44884;52.730;6.964;2024-02-14T11:51:39;5.93;;;5.07;;
59099;SDS011;44884;52.730;6.964;2024-02-14T11:54:06;6.97;;;4.88;;
59099;SDS011;44884;52.730;6.964;2024-02-14T11:59:02;6.57;;;5.07;;
59099;SDS011;44884;52.730;6.964;2024-02-14T12:01:30;6.00;;;5.20;;
59099;SDS011;44884;52.730;6.964;2024-02-14T12:03:57;5.63;;;4.75;;
59099;SDS011;44884;52.730;6.964;2024-02-14T12:06:23;4.82;;;4.25;;
59099;SDS011;44884;52.730;6.964;2024-02-14T12:08:50;6.10;;;5.30;;
59099;SDS011;44884;52.730;6.964;2024-02-14T12:11:17;5.05;;;4.55;;
59099;SDS011;44884;52.730;6.964;2024-02-14T12:13:43;5.07;;;4.22;;
59099;SDS011;44884;52.730;6.964;2024-02-14T12:16:11;6.40;;;4.70;;
59099;SDS011;44884;52.730;6.964;2024-02-14T12:18:37;5.18;;;4.68;;
59099;SDS011;44884;52.730;6.964;2024-02-14T12:21:05;5.65;;;4.65;;
59099;SDS011;44884;52.730;6.964;2024-02-14T12:23:32;6.70;;;5.15;;
59099;SDS011;44884;52.730;6.964;2024-02-14T12:26:02;5.15;;;4.43;;
59099;SDS011;44884;52.730;6.964;2024-02-14T12:28:29;5.40;;;4.43;;
59099;SDS011;44884;52.730;6.964;2024-02-14T12:30:56;6.32;;;4.63;;
59099;SDS011;44884;52.730;6.964;2024-02-14T12:33:22;5.30;;;4.60;;
59099;SDS011;44884;52.730;6.964;2024-02-14T12:35:49;6.28;;;4.43;;
59099;SDS011;44884;52.730;6.964;2024-02-14T12:38:17;4.60;;;4.07;;
59099;SDS011;44884;52.730;6.964;2024-02-14T12:40:43;5.32;;;3.90;;
59099;SDS011;44884;52.730;6.964;2024-02-14T12:43:10;5.13;;;4.53;;
59099;SDS011;44884;52.730;6.964;2024-02-14T12:45:36;5.45;;;4.35;;
59099;SDS011;44884;52.730;6.964;2024-02-14T12:48:03;4.50;;;4.10;;
59099;SDS011;44884;52.730;6.964;2024-02-14T12:50:30;6.68;;;4.47;;
59099;SDS011;44884;52.730;6.964;2024-02-14T12:52:56;4.90;;;4.10;;
59099;SDS011;44884;52.730;6.964;2024-02-14T12:55:26;6.78;;;5.32;;
59099;SDS011;44884;52.730;6.964;2024-02-14T12:57:54;5.63;;;4.55;;
59099;SDS011;44884;52.730;6.964;2024-02-14T13:00:20;4.57;;;4.05;;
59099;SDS011;44884;52.730;6.964;2024-02-14T13:02:47;5.60;;;4.22;;
59099;SDS011;44884;52.730;6.964;2024-02-14T13:05:13;4.90;;;4.40;;
59099;SDS011;44884;52.730;6.964;2024-02-14T13:07:40;4.43;;;3.80;;
59099;SDS011;44884;52.730;6.964;2024-02-14T13:10:07;5.00;;;4.18;;
59099;SDS011;44884;52.730;6.964;2024-02-14T13:12:35;5.68;;;4.63;;
59099;SDS011;44884;52.730;6.964;2024-02-14T13:15:02;5.25;;;4.75;;
59099;SDS011;44884;52.730;6.964;2024-02-14T13:17:29;6.57;;;5.10;;
59099;SDS011;44884;52.730;6.964;2024-02-14T13:19:55;6.13;;;4.43;;
59099;SDS011;44884;52.730;6.964;2024-02-14T13:22:22;4.05;;;3.63;;
59099;SDS011;44884;52.730;6.964;2024-02-14T13:24:48;4.38;;;3.95;;
59099;SDS011;44884;52.730;6.964;2024-02-14T13:27:15;5.70;;;4.95;;
59099;SDS011;44884;52.730;6.964;2024-02-14T13:29:41;5.25;;;4.68;;
59099;SDS011;44884;52.730;6.964;2024-02-14T13:32:07;4.90;;;3.83;;
59099;SDS011;44884;52.730;6.964;2024-02-14T13:34:33;4.55;;;4.10;;
59099;SDS011;44884;52.730;6.964;2024-02-14T13:37:00;5.22;;;4.28;;
59099;SDS011;44884;52.730;6.964;2024-02-14T13:39:27;4.20;;;3.58;;
59099;SDS011;44884;52.730;6.964;2024-02-14T13:41:53;5.07;;;4.32;;
59099;SDS011;44884;52.730;6.964;2024-02-14T13:44:22;4.75;;;4.35;;
59099;SDS011;44884;52.730;6.964;2024-02-14T13:46:49;5.65;;;4.65;;
59099;SDS011;44884;52.730;6.964;2024-02-14T13:49:17;5.13;;;4.22;;
59099;SDS011;44884;52.730;6.964;2024-02-14T13:51:50;4.57;;;4.03;;
59099;SDS011;44884;52.730;6.964;2024-02-14T13:54:16;5.25;;;4.20;;
59099;SDS011;44884;52.730;6.964;2024-02-14T13:56:43;7.18;;;5.07;;
59099;SDS011;44884;52.730;6.964;2024-02-14T13:59:09;5.03;;;4.40;;
59099;SDS011;44884;52.730;6.964;2024-02-14T14:01:36;4.95;;;4.40;;
59099;SDS011;44884;52.730;6.964;2024-02-14T14:04:02;5.43;;;4.93;;
59099;SDS011;44884;52.730;6.964;2024-02-14T14:06:29;6.00;;;4.72;;
59099;SDS011;44884;52.730;6.964;2024-02-14T14:08:55;5.00;;;4.18;;
59099;SDS011;44884;52.730;6.964;2024-02-14T14:11:21;4.95;;;4.35;;
59099;SDS011;44884;52.730;6.964;2024-02-14T14:13:48;5.38;;;4.78;;
59099;SDS011;44884;52.730;6.964;2024-02-14T14:16:14;4.93;;;4.43;;
59099;SDS011;44884;52.730;6.964;2024-02-14T14:18:40;5.28;;;4.63;;
59099;SDS011;44884;52.730;6.964;2024-02-14T14:21:06;5.35;;;4.85;;
59099;SDS011;44884;52.730;6.964;2024-02-14T14:23:32;4.93;;;4.43;;
59099;SDS011;44884;52.730;6.964;2024-02-14T14:25:59;8.35;;;5.25;;
59099;SDS011;44884;52.730;6.964;2024-02-14T14:28:25;5.60;;;4.78;;
59099;SDS011;44884;52.730;6.964;2024-02-14T14:30:52;4.43;;;4.03;;
59099;SDS011;44884;52.730;6.964;2024-02-14T14:33:19;6.93;;;5.22;;
59099;SDS011;44884;52.730;6.964;2024-02-14T14:35:45;4.70;;;4.20;;
59099;SDS011;44884;52.730;6.964;2024-02-14T14:38:14;5.95;;;4.28;;
59099;SDS011;44884;52.730;6.964;2024-02-14T14:40:40;5.65;;;5.00;;
59099;SDS011;44884;52.730;6.964;2024-02-14T14:43:06;5.85;;;4.95;;
59099;SDS011;44884;52.730;6.964;2024-02-14T14:45:34;6.68;;;4.88;;